sensor_id;sensor_type;location;lat;lon;timestamp;P1;durP1;ratioP1;P2;durP2;ratioP2
7497;SDS011;3790;48.806;9.140;2023-01-29T00:04:49;6.17;;;3.87;;
7497;SDS011;3790;48.806;9.140;2023-01-29T00:09:50;7.97;;;3.67;;
7497;SDS011;3790;48.806;9.140;2023-01-29T00:14:50;7.07;;;3.63;;
7497;SDS011;3790;48.806;9.140;2023-01-29T00:19:51;5.27;;;3.30;;
7497;SDS011;3790;48.806;9.140;2023-01-29T00:24:52;7.30;;;3.83;;
7497;SDS011;3790;48.806;9.140;2023-01-29T00:29:52;5.30;;;3.63;;
7497;SDS011;3790;48.806;9.140;2023-01-29T00:35:10;8.60;;;4.00;;
7497;SDS011;3790;48.806;9.140;2023-01-29T00:40:11;6.10;;;3.70;;
7497;SDS011;3790;48.806;9.140;2023-01-29T00:45:12;5.13;;;3.20;;
7497;SDS011;3790;48.806;9.140;2023-01-29T00:50:13;6.53;;;3.67;;
7497;SDS011;3790;48.806;9.140;2023-01-29T00:55:13;6.77;;;3.67;;
7497;SDS011;3790;48.806;9.140;2023-01-29T01:00:15;5.40;;;3.47;;
7497;SDS011;3790;48.806;9.140;2023-01-29T01:05:17;8.17;;;4.10;;
7497;SDS011;3790;48.806;9.140;2023-01-29T01:10:19;8.77;;;3.63;;
7497;SDS011;3790;48.806;9.140;2023-01-29T01:15:26;6.73;;;3.80;;
7497;SDS011;3790;48.806;9.140;2023-01-29T01:20:30;7.00;;;3.73;;
7497;SDS011;3790;48.806;9.140;2023-01-29T01:25:33;4.80;;;3.23;;
7497;SDS011;3790;48.806;9.140;2023-01-29T01:30:33;5.03;;;3.70;;
7497;SDS011;3790;48.806;9.140;2023-01-29T01:35:34;11.10;;;4.13;;
7497;SDS011;3790;48.806;9.140;2023-01-29T01:40:34;5.27;;;3.57;;
7497;SDS011;3790;48.806;9.140;2023-01-29T01:45:35;7.50;;;3.80;;
7497;SDS011;3790;48.806;9.140;2023-01-29T01:50:37;6.53;;;3.50;;
7497;SDS011;3790;48.806;9.140;2023-01-29T01:55:47;6.43;;;3.50;;
7497;SDS011;3790;48.806;9.140;2023-01-29T02:00:51;4.43;;;3.17;;
7497;SDS011;3790;48.806;9.140;2023-01-29T02:05:53;5.57;;;3.67;;
7497;SDS011;3790;48.806;9.140;2023-01-29T02:11:14;5.67;;;3.60;;
7497;SDS011;3790;48.806;9.140;2023-01-29T02:16:16;5.43;;;3.23;;
7497;SDS011;3790;48.806;9.140;2023-01-29T02:27:08;6.23;;;3.23;;
7497;SDS011;3790;48.806;9.140;2023-01-29T02:37:18;7.00;;;3.97;;
7497;SDS011;3790;48.806;9.140;2023-01-29T02:42:27;5.67;;;3.60;;
7497;SDS011;3790;48.806;9.140;2023-01-29T02:52:44;4.60;;;3.03;;
7497;SDS011;3790;48.806;9.140;2023-01-29T02:58:01;7.23;;;3.63;;
7497;SDS011;3790;48.806;9.140;2023-01-29T03:03:26;9.27;;;3.67;;
7497;SDS011;3790;48.806;9.140;2023-01-29T03:08:36;4.80;;;3.23;;
7497;SDS011;3790;48.806;9.140;2023-01-29T03:14:04;5.53;;;3.17;;
7497;SDS011;3790;48.806;9.140;2023-01-29T03:19:27;6.53;;;3.40;;
7497;SDS011;3790;48.806;9.140;2023-01-29T03:24:53;5.60;;;3.03;;
7497;SDS011;3790;48.806;9.140;2023-01-29T03:30:15;5.50;;;3.53;;
7497;SDS011;3790;48.806;9.140;2023-01-29T03:35:39;4.80;;;3.37;;
7497;SDS011;3790;48.806;9.140;2023-01-29T03:40:51;6.67;;;3.40;;
7497;SDS011;3790;48.806;9.140;2023-01-29T03:46:07;5.30;;;3.37;;
7497;SDS011;3790;48.806;9.140;2023-01-29T03:56:36;6.97;;;3.80;;
7497;SDS011;3790;48.806;9.140;2023-01-29T04:01:45;4.90;;;3.47;;
7497;SDS011;3790;48.806;9.140;2023-01-29T04:06:51;5.97;;;3.73;;
7497;SDS011;3790;48.806;9.140;2023-01-29T04:12:03;8.20;;;3.90;;
7497;SDS011;3790;48.806;9.140;2023-01-29T04:17:10;6.27;;;3.87;;
7497;SDS011;3790;48.806;9.140;2023-01-29T04:22:17;6.13;;;3.73;;
7497;SDS011;3790;48.806;9.140;2023-01-29T04:27:25;5.87;;;4.13;;
7497;SDS011;3790;48.806;9.140;2023-01-29T04:32:38;6.10;;;3.67;;
7497;SDS011;3790;48.806;9.140;2023-01-29T04:43:41;6.37;;;3.93;;
7497;SDS011;3790;48.806;9.140;2023-01-29T04:59:13;5.53;;;3.57;;
7497;SDS011;3790;48.806;9.140;2023-01-29T05:04:19;5.67;;;3.53;;
7497;SDS011;3790;48.806;9.140;2023-01-29T05:09:21;5.60;;;3.50;;
7497;SDS011;3790;48.806;9.140;2023-01-29T05:14:22;4.60;;;3.17;;
7497;SDS011;3790;48.806;9.140;2023-01-29T05:19:25;10.63;;;3.27;;
7497;SDS011;3790;48.806;9.140;2023-01-29T05:24:26;5.50;;;3.50;;
7497;SDS011;3790;48.806;9.140;2023-01-29T05:29:26;6.53;;;3.57;;
7497;SDS011;3790;48.806;9.140;2023-01-29T05:34:29;5.90;;;3.80;;
7497;SDS011;3790;48.806;9.140;2023-01-29T05:39:30;5.27;;;3.37;;
7497;SDS011;3790;48.806;9.140;2023-01-29T05:44:30;4.80;;;3.30;;
7497;SDS011;3790;48.806;9.140;2023-01-29T05:49:31;5.80;;;3.67;;
7497;SDS011;3790;48.806;9.140;2023-01-29T05:54:31;7.07;;;3.60;;
7497;SDS011;3790;48.806;9.140;2023-01-29T05:59:32;6.90;;;3.93;;
7497;SDS011;3790;48.806;9.140;2023-01-29T06:04:32;6.13;;;3.67;;
7497;SDS011;3790;48.806;9.140;2023-01-29T06:09:33;4.43;;;3.03;;
7497;SDS011;3790;48.806;9.140;2023-01-29T06:14:33;6.70;;;4.17;;
7497;SDS011;3790;48.806;9.140;2023-01-29T06:19:34;7.70;;;3.30;;
7497;SDS011;3790;48.806;9.140;2023-01-29T06:24:34;7.47;;;4.03;;
7497;SDS011;3790;48.806;9.140;2023-01-29T06:29:35;9.37;;;3.73;;
7497;SDS011;3790;48.806;9.140;2023-01-29T06:34:36;6.17;;;4.13;;
7497;SDS011;3790;48.806;9.140;2023-01-29T06:39:36;5.10;;;3.47;;
7497;SDS011;3790;48.806;9.140;2023-01-29T06:44:37;5.07;;;3.30;;
7497;SDS011;3790;48.806;9.140;2023-01-29T06:49:37;4.93;;;3.23;;
7497;SDS011;3790;48.806;9.140;2023-01-29T06:54:38;6.83;;;3.57;;
7497;SDS011;3790;48.806;9.140;2023-01-29T06:59:38;6.53;;;4.10;;
7497;SDS011;3790;48.806;9.140;2023-01-29T07:04:39;4.43;;;3.10;;
7497;SDS011;3790;48.806;9.140;2023-01-29T07:09:41;6.00;;;4.10;;
7497;SDS011;3790;48.806;9.140;2023-01-29T07:14:42;6.03;;;3.70;;
7497;SDS011;3790;48.806;9.140;2023-01-29T07:19:42;4.63;;;3.73;;
7497;SDS011;3790;48.806;9.140;2023-01-29T07:24:43;5.03;;;3.27;;
7497;SDS011;3790;48.806;9.140;2023-01-29T07:29:43;6.73;;;3.33;;
7497;SDS011;3790;48.806;9.140;2023-01-29T07:34:44;4.10;;;2.90;;
7497;SDS011;3790;48.806;9.140;2023-01-29T07:39:47;6.00;;;3.97;;
7497;SDS011;3790;48.806;9.140;2023-01-29T07:44:48;5.80;;;4.07;;
7497;SDS011;3790;48.806;9.140;2023-01-29T07:49:48;5.93;;;3.73;;
7497;SDS011;3790;48.806;9.140;2023-01-29T07:54:49;5.97;;;3.10;;
7497;SDS011;3790;48.806;9.140;2023-01-29T07:59:50;5.80;;;3.27;;
7497;SDS011;3790;48.806;9.140;2023-01-29T08:04:50;4.90;;;3.30;;
7497;SDS011;3790;48.806;9.140;2023-01-29T08:09:51;5.97;;;3.30;;
7497;SDS011;3790;48.806;9.140;2023-01-29T08:14:51;4.90;;;3.47;;
7497;SDS011;3790;48.806;9.140;2023-01-29T08:19:52;6.20;;;3.83;;
7497;SDS011;3790;48.806;9.140;2023-01-29T08:24:52;9.63;;;3.63;;
7497;SDS011;3790;48.806;9.140;2023-01-29T08:29:53;10.33;;;4.47;;
7497;SDS011;3790;48.806;9.140;2023-01-29T08:34:53;7.70;;;3.73;;
7497;SDS011;3790;48.806;9.140;2023-01-29T08:39:54;6.27;;;3.87;;
7497;SDS011;3790;48.806;9.140;2023-01-29T08:44:54;10.73;;;4.20;;
7497;SDS011;3790;48.806;9.140;2023-01-29T08:49:55;7.07;;;4.03;;
7497;SDS011;3790;48.806;9.140;2023-01-29T08:54:55;6.03;;;4.20;;
7497;SDS011;3790;48.806;9.140;2023-01-29T08:59:58;6.43;;;4.00;;
7497;SDS011;3790;48.806;9.140;2023-01-29T09:04:58;5.97;;;3.60;;
7497;SDS011;3790;48.806;9.140;2023-01-29T09:09:59;5.80;;;3.80;;
7497;SDS011;3790;48.806;9.140;2023-01-29T09:15:00;6.10;;;3.43;;
7497;SDS011;3790;48.806;9.140;2023-01-29T09:20:00;6.47;;;3.70;;
7497;SDS011;3790;48.806;9.140;2023-01-29T09:25:01;6.20;;;4.03;;
7497;SDS011;3790;48.806;9.140;2023-01-29T09:30:02;6.33;;;4.30;;
7497;SDS011;3790;48.806;9.140;2023-01-29T09:35:04;9.53;;;3.77;;
7497;SDS011;3790;48.806;9.140;2023-01-29T09:40:05;5.77;;;3.97;;
7497;SDS011;3790;48.806;9.140;2023-01-29T09:45:19;6.33;;;3.77;;
7497;SDS011;3790;48.806;9.140;2023-01-29T09:50:31;8.17;;;4.10;;
7497;SDS011;3790;48.806;9.140;2023-01-29T09:55:45;9.80;;;3.80;;
7497;SDS011;3790;48.806;9.140;2023-01-29T10:06:08;5.80;;;3.47;;
7497;SDS011;3790;48.806;9.140;2023-01-29T10:17:10;5.67;;;3.43;;
7497;SDS011;3790;48.806;9.140;2023-01-29T10:27:52;5.10;;;3.30;;
7497;SDS011;3790;48.806;9.140;2023-01-29T10:33:02;5.57;;;3.20;;
7497;SDS011;3790;48.806;9.140;2023-01-29T10:38:17;6.87;;;4.30;;
7497;SDS011;3790;48.806;9.140;2023-01-29T11:00:07;4.53;;;3.00;;
7497;SDS011;3790;48.806;9.140;2023-01-29T11:10:37;6.20;;;4.00;;
7497;SDS011;3790;48.806;9.140;2023-01-29T11:15:46;6.07;;;4.20;;
7497;SDS011;3790;48.806;9.140;2023-01-29T11:21:01;6.80;;;4.40;;
7497;SDS011;3790;48.806;9.140;2023-01-29T11:26:03;6.93;;;4.37;;
7497;SDS011;3790;48.806;9.140;2023-01-29T11:36:33;5.23;;;3.30;;
7497;SDS011;3790;48.806;9.140;2023-01-29T11:41:41;11.57;;;4.33;;
7497;SDS011;3790;48.806;9.140;2023-01-29T11:46:43;6.00;;;3.70;;
7497;SDS011;3790;48.806;9.140;2023-01-29T11:51:44;6.77;;;4.40;;
7497;SDS011;3790;48.806;9.140;2023-01-29T11:56:51;15.47;;;4.60;;
7497;SDS011;3790;48.806;9.140;2023-01-29T12:01:53;7.67;;;4.50;;
7497;SDS011;3790;48.806;9.140;2023-01-29T12:06:55;7.53;;;4.87;;
7497;SDS011;3790;48.806;9.140;2023-01-29T12:11:56;6.23;;;4.40;;
7497;SDS011;3790;48.806;9.140;2023-01-29T12:17:20;6.20;;;4.33;;
7497;SDS011;3790;48.806;9.140;2023-01-29T12:23:10;7.90;;;5.00;;
7497;SDS011;3790;48.806;9.140;2023-01-29T12:28:06;8.97;;;5.27;;
7497;SDS011;3790;48.806;9.140;2023-01-29T12:33:32;8.63;;;4.93;;
7497;SDS011;3790;48.806;9.140;2023-01-29T12:38:50;6.47;;;4.80;;
7497;SDS011;3790;48.806;9.140;2023-01-29T12:43:52;6.63;;;4.80;;
7497;SDS011;3790;48.806;9.140;2023-01-29T12:48:57;7.10;;;4.87;;
7497;SDS011;3790;48.806;9.140;2023-01-29T12:54:13;7.60;;;4.63;;
7497;SDS011;3790;48.806;9.140;2023-01-29T12:59:20;5.80;;;4.50;;
7497;SDS011;3790;48.806;9.140;2023-01-29T13:09:36;7.80;;;4.77;;
7497;SDS011;3790;48.806;9.140;2023-01-29T13:14:41;9.70;;;5.17;;
7497;SDS011;3790;48.806;9.140;2023-01-29T13:19:48;8.30;;;4.60;;
7497;SDS011;3790;48.806;9.140;2023-01-29T13:24:51;12.23;;;4.30;;
7497;SDS011;3790;48.806;9.140;2023-01-29T13:29:53;8.67;;;5.03;;
7497;SDS011;3790;48.806;9.140;2023-01-29T13:34:56;9.47;;;4.27;;
7497;SDS011;3790;48.806;9.140;2023-01-29T13:39:59;7.43;;;5.03;;
7497;SDS011;3790;48.806;9.140;2023-01-29T13:45:04;7.00;;;4.43;;
7497;SDS011;3790;48.806;9.140;2023-01-29T13:50:06;7.50;;;5.10;;
7497;SDS011;3790;48.806;9.140;2023-01-29T14:10:30;6.63;;;5.17;;
7497;SDS011;3790;48.806;9.140;2023-01-29T14:15:33;8.80;;;5.43;;
7497;SDS011;3790;48.806;9.140;2023-01-29T14:20:39;7.47;;;5.27;;
7497;SDS011;3790;48.806;9.140;2023-01-29T14:25:49;7.33;;;5.13;;
7497;SDS011;3790;48.806;9.140;2023-01-29T14:30:50;10.67;;;5.47;;
7497;SDS011;3790;48.806;9.140;2023-01-29T14:35:52;6.57;;;5.03;;
7497;SDS011;3790;48.806;9.140;2023-01-29T14:41:03;6.93;;;4.67;;
7497;SDS011;3790;48.806;9.140;2023-01-29T14:51:35;8.57;;;5.07;;
7497;SDS011;3790;48.806;9.140;2023-01-29T14:56:39;8.53;;;5.20;;
7497;SDS011;3790;48.806;9.140;2023-01-29T15:01:55;8.67;;;5.37;;
7497;SDS011;3790;48.806;9.140;2023-01-29T15:07:05;10.10;;;5.13;;
7497;SDS011;3790;48.806;9.140;2023-01-29T15:12:16;6.67;;;4.53;;
7497;SDS011;3790;48.806;9.140;2023-01-29T15:17:26;7.87;;;5.17;;
7497;SDS011;3790;48.806;9.140;2023-01-29T15:22:40;6.80;;;4.93;;
7497;SDS011;3790;48.806;9.140;2023-01-29T15:27:42;10.93;;;5.67;;
7497;SDS011;3790;48.806;9.140;2023-01-29T15:32:44;6.90;;;4.57;;
7497;SDS011;3790;48.806;9.140;2023-01-29T15:37:56;7.20;;;4.97;;
7497;SDS011;3790;48.806;9.140;2023-01-29T15:43:11;8.10;;;5.00;;
7497;SDS011;3790;48.806;9.140;2023-01-29T15:48:29;8.30;;;5.07;;
7497;SDS011;3790;48.806;9.140;2023-01-29T15:53:35;6.70;;;5.00;;
7497;SDS011;3790;48.806;9.140;2023-01-29T15:58:40;7.70;;;5.70;;
7497;SDS011;3790;48.806;9.140;2023-01-29T16:03:41;7.70;;;5.70;;
7497;SDS011;3790;48.806;9.140;2023-01-29T16:08:43;9.63;;;6.53;;
7497;SDS011;3790;48.806;9.140;2023-01-29T16:13:47;11.30;;;6.93;;
7497;SDS011;3790;48.806;9.140;2023-01-29T16:18:49;10.40;;;6.50;;
7497;SDS011;3790;48.806;9.140;2023-01-29T16:23:52;7.37;;;5.90;;
7497;SDS011;3790;48.806;9.140;2023-01-29T16:28:55;13.50;;;6.73;;
7497;SDS011;3790;48.806;9.140;2023-01-29T16:33:56;9.20;;;6.73;;
7497;SDS011;3790;48.806;9.140;2023-01-29T16:38:59;11.23;;;6.73;;
7497;SDS011;3790;48.806;9.140;2023-01-29T16:44:03;9.73;;;6.20;;
7497;SDS011;3790;48.806;9.140;2023-01-29T16:54:28;9.90;;;6.57;;
7497;SDS011;3790;48.806;9.140;2023-01-29T16:59:33;10.40;;;6.67;;
7497;SDS011;3790;48.806;9.140;2023-01-29T17:04:35;11.63;;;7.00;;
7497;SDS011;3790;48.806;9.140;2023-01-29T17:09:39;9.30;;;5.90;;
7497;SDS011;3790;48.806;9.140;2023-01-29T17:14:41;11.70;;;6.63;;
7497;SDS011;3790;48.806;9.140;2023-01-29T17:19:52;9.17;;;6.00;;
7497;SDS011;3790;48.806;9.140;2023-01-29T17:24:53;7.93;;;5.27;;
7497;SDS011;3790;48.806;9.140;2023-01-29T17:29:53;6.70;;;4.97;;
7497;SDS011;3790;48.806;9.140;2023-01-29T17:34:54;6.90;;;4.83;;
7497;SDS011;3790;48.806;9.140;2023-01-29T17:39:54;7.40;;;4.80;;
7497;SDS011;3790;48.806;9.140;2023-01-29T17:44:55;11.63;;;5.70;;
7497;SDS011;3790;48.806;9.140;2023-01-29T17:49:55;7.53;;;5.13;;
7497;SDS011;3790;48.806;9.140;2023-01-29T17:54:57;6.30;;;4.73;;
7497;SDS011;3790;48.806;9.140;2023-01-29T17:59:57;8.13;;;5.07;;
7497;SDS011;3790;48.806;9.140;2023-01-29T18:04:58;6.83;;;4.17;;
7497;SDS011;3790;48.806;9.140;2023-01-29T18:09:58;5.13;;;3.87;;
7497;SDS011;3790;48.806;9.140;2023-01-29T18:14:59;8.03;;;5.03;;
7497;SDS011;3790;48.806;9.140;2023-01-29T18:19:59;7.20;;;4.20;;
7497;SDS011;3790;48.806;9.140;2023-01-29T18:25:00;11.03;;;4.70;;
7497;SDS011;3790;48.806;9.140;2023-01-29T18:30:00;7.67;;;4.30;;
7497;SDS011;3790;48.806;9.140;2023-01-29T18:35:01;6.67;;;4.53;;
7497;SDS011;3790;48.806;9.140;2023-01-29T18:40:02;8.93;;;5.83;;
7497;SDS011;3790;48.806;9.140;2023-01-29T18:45:04;8.57;;;4.97;;
7497;SDS011;3790;48.806;9.140;2023-01-29T18:50:05;7.97;;;5.07;;
7497;SDS011;3790;48.806;9.140;2023-01-29T18:55:06;6.67;;;4.67;;
7497;SDS011;3790;48.806;9.140;2023-01-29T19:00:08;6.47;;;4.20;;
7497;SDS011;3790;48.806;9.140;2023-01-29T19:05:10;9.27;;;4.87;;
7497;SDS011;3790;48.806;9.140;2023-01-29T19:10:11;8.37;;;5.17;;
7497;SDS011;3790;48.806;9.140;2023-01-29T19:15:11;8.23;;;5.50;;
7497;SDS011;3790;48.806;9.140;2023-01-29T19:20:12;8.53;;;5.13;;
7497;SDS011;3790;48.806;9.140;2023-01-29T19:25:12;7.53;;;5.13;;
7497;SDS011;3790;48.806;9.140;2023-01-29T19:30:13;7.47;;;4.57;;
7497;SDS011;3790;48.806;9.140;2023-01-29T19:35:14;5.57;;;3.70;;
7497;SDS011;3790;48.806;9.140;2023-01-29T19:40:15;7.30;;;3.93;;
7497;SDS011;3790;48.806;9.140;2023-01-29T19:45:15;13.77;;;10.03;;
7497;SDS011;3790;48.806;9.140;2023-01-29T19:50:16;8.40;;;5.33;;
7497;SDS011;3790;48.806;9.140;2023-01-29T19:55:18;7.40;;;5.20;;
7497;SDS011;3790;48.806;9.140;2023-01-29T20:00:20;9.47;;;7.20;;
7497;SDS011;3790;48.806;9.140;2023-01-29T20:05:20;9.63;;;6.53;;
7497;SDS011;3790;48.806;9.140;2023-01-29T20:10:22;13.13;;;8.60;;
7497;SDS011;3790;48.806;9.140;2023-01-29T20:15:23;9.23;;;6.70;;
7497;SDS011;3790;48.806;9.140;2023-01-29T20:20:24;7.63;;;5.40;;
7497;SDS011;3790;48.806;9.140;2023-01-29T20:25:26;8.60;;;5.40;;
7497;SDS011;3790;48.806;9.140;2023-01-29T20:30:26;11.80;;;7.40;;
7497;SDS011;3790;48.806;9.140;2023-01-29T20:35:30;11.47;;;8.60;;
7497;SDS011;3790;48.806;9.140;2023-01-29T20:40:32;9.73;;;6.80;;
7497;SDS011;3790;48.806;9.140;2023-01-29T20:45:32;11.20;;;5.73;;
7497;SDS011;3790;48.806;9.140;2023-01-29T20:50:34;9.70;;;7.13;;
7497;SDS011;3790;48.806;9.140;2023-01-29T20:55:35;18.27;;;8.67;;
7497;SDS011;3790;48.806;9.140;2023-01-29T21:00:40;13.17;;;7.37;;
7497;SDS011;3790;48.806;9.140;2023-01-29T21:05:41;15.97;;;10.00;;
7497;SDS011;3790;48.806;9.140;2023-01-29T21:10:41;13.53;;;8.40;;
7497;SDS011;3790;48.806;9.140;2023-01-29T21:15:44;12.63;;;7.73;;
7497;SDS011;3790;48.806;9.140;2023-01-29T21:20:44;16.93;;;8.83;;
7497;SDS011;3790;48.806;9.140;2023-01-29T21:25:45;8.83;;;6.27;;
7497;SDS011;3790;48.806;9.140;2023-01-29T21:30:45;8.37;;;6.40;;
7497;SDS011;3790;48.806;9.140;2023-01-29T21:35:55;12.53;;;7.33;;
7497;SDS011;3790;48.806;9.140;2023-01-29T21:41:03;10.57;;;6.83;;
7497;SDS011;3790;48.806;9.140;2023-01-29T21:46:06;12.90;;;7.87;;
7497;SDS011;3790;48.806;9.140;2023-01-29T21:51:10;13.07;;;8.97;;
7497;SDS011;3790;48.806;9.140;2023-01-29T21:56:16;12.47;;;8.37;;
7497;SDS011;3790;48.806;9.140;2023-01-29T22:01:18;13.23;;;8.33;;
7497;SDS011;3790;48.806;9.140;2023-01-29T22:06:19;13.97;;;8.07;;
7497;SDS011;3790;48.806;9.140;2023-01-29T22:11:20;14.23;;;8.30;;
7497;SDS011;3790;48.806;9.140;2023-01-29T22:16:23;11.77;;;8.00;;
7497;SDS011;3790;48.806;9.140;2023-01-29T22:21:23;13.97;;;7.80;;
7497;SDS011;3790;48.806;9.140;2023-01-29T22:26:24;10.83;;;7.47;;
7497;SDS011;3790;48.806;9.140;2023-01-29T22:31:24;11.83;;;8.60;;
7497;SDS011;3790;48.806;9.140;2023-01-29T22:36:25;12.03;;;8.07;;
7497;SDS011;3790;48.806;9.140;2023-01-29T22:41:25;10.60;;;6.97;;
7497;SDS011;3790;48.806;9.140;2023-01-29T22:46:26;11.03;;;8.00;;
7497;SDS011;3790;48.806;9.140;2023-01-29T22:51:27;10.43;;;7.50;;
7497;SDS011;3790;48.806;9.140;2023-01-29T22:56:27;14.53;;;8.00;;
7497;SDS011;3790;48.806;9.140;2023-01-29T23:01:33;10.20;;;6.90;;
7497;SDS011;3790;48.806;9.140;2023-01-29T23:06:33;11.50;;;7.43;;
7497;SDS011;3790;48.806;9.140;2023-01-29T23:11:34;13.77;;;7.77;;
7497;SDS011;3790;48.806;9.140;2023-01-29T23:16:34;11.17;;;7.47;;
7497;SDS011;3790;48.806;9.140;2023-01-29T23:21:35;15.70;;;8.67;;
7497;SDS011;3790;48.806;9.140;2023-01-29T23:26:36;11.90;;;7.63;;
7497;SDS011;3790;48.806;9.140;2023-01-29T23:31:55;12.73;;;7.93;;
7497;SDS011;3790;48.806;9.140;2023-01-29T23:36:55;11.20;;;7.83;;
7497;SDS011;3790;48.806;9.140;2023-01-29T23:41:56;11.43;;;6.97;;
7497;SDS011;3790;48.806;9.140;2023-01-29T23:46:56;11.63;;;7.40;;
7497;SDS011;3790;48.806;9.140;2023-01-29T23:51:57;10.47;;;7.30;;
7497;SDS011;3790;48.806;9.140;2023-01-29T23:56:57;13.07;;;8.03;;
